createdAt,value
2017-08-12T00:01:54.997Z,70.80
2017-08-12T00:04:21.381Z,70.60
2017-08-12T00:06:48.476Z,72.30
2017-08-12T00:09:14.828Z,71.70
2017-08-12T00:11:41.163Z,71.20
2017-08-12T00:14:07.543Z,70.70
2017-08-12T00:16:33.927Z,69.70
2017-08-12T00:19:00.260Z,69.40
2017-08-12T00:21:26.611Z,69.50
2017-08-12T00:23:52.932Z,69.50
2017-08-12T00:26:19.460Z,70.00
2017-08-12T00:28:46.555Z,71.20
2017-08-12T00:31:12.892Z,70.60
2017-08-12T00:33:39.283Z,71.00
2017-08-12T00:36:06.375Z,71.40
2017-08-12T00:38:32.841Z,71.30
2017-08-12T00:40:59.176Z,71.40
2017-08-12T00:43:25.616Z,71.40
2017-08-12T00:45:51.956Z,71.40
2017-08-12T00:48:18.295Z,71.30
2017-08-12T00:50:44.664Z,71.00
2017-08-12T00:53:11.070Z,71.40
2017-08-12T00:55:37.474Z,71.80
2017-08-12T00:58:03.854Z,71.70
2017-08-12T01:00:30.948Z,71.70
2017-08-12T01:02:58.030Z,70.70
2017-08-12T01:05:24.411Z,70.70
2017-08-12T01:07:50.779Z,71.90
2017-08-12T01:10:17.140Z,70.80
2017-08-12T01:12:44.312Z,71.80
2017-08-12T01:15:10.645Z,71.60
2017-08-12T01:17:37.009Z,71.20
2017-08-12T01:20:03.358Z,71.40
2017-08-12T01:22:29.771Z,71.00
2017-08-12T01:24:56.136Z,70.00
2017-08-12T01:27:22.473Z,70.80
2017-08-12T01:29:49.548Z,71.10
2017-08-12T01:32:15.871Z,71.10
2017-08-12T01:34:42.197Z,70.50
2017-08-12T01:37:08.590Z,70.70
2017-08-12T01:39:34.940Z,70.90
2017-08-12T01:42:01.307Z,70.90
2017-08-12T01:44:27.670Z,70.70
2017-08-12T01:46:54.247Z,70.60
2017-08-12T01:49:20.792Z,71.40
2017-08-12T01:51:47.132Z,70.30
2017-08-12T01:54:13.692Z,70.70
2017-08-12T01:56:40.211Z,70.70
2017-08-12T01:59:06.796Z,70.40
2017-08-12T02:01:33.403Z,71.10
2017-08-12T02:03:59.956Z,69.60
2017-08-12T02:06:26.556Z,69.70
2017-08-12T02:08:53.114Z,69.60
2017-08-12T02:11:19.813Z,70.80
2017-08-12T02:13:46.367Z,70.80
2017-08-12T02:16:12.934Z,71.30
2017-08-12T02:18:39.537Z,70.70
2017-08-12T02:21:06.112Z,71.30
2017-08-12T02:23:32.685Z,71.50
2017-08-12T02:25:59.756Z,71.70
2017-08-12T02:28:26.328Z,71.90
2017-08-12T02:30:52.865Z,71.80
2017-08-12T02:33:20.176Z,70.70
2017-08-12T02:35:46.748Z,70.40
2017-08-12T02:38:13.324Z,70.40
2017-08-12T02:40:39.930Z,69.50
2017-08-12T02:43:07.608Z,70.10
2017-08-12T02:45:33.966Z,70.10
2017-08-12T02:48:01.066Z,70.70
2017-08-12T02:50:28.163Z,71.10
2017-08-12T02:52:54.517Z,71.10
2017-08-12T02:55:20.847Z,71.20
2017-08-12T02:57:47.168Z,71.40
2017-08-12T03:00:13.509Z,69.10
2017-08-12T03:02:40.064Z,70.00
2017-08-12T03:05:09.549Z,70.50
2017-08-12T03:07:35.869Z,70.10
2017-08-12T03:10:02.272Z,70.70
2017-08-12T03:12:28.688Z,71.20
2017-08-12T03:14:55.001Z,69.80
2017-08-12T03:17:21.333Z,69.00
2017-08-12T03:19:47.656Z,69.50
2017-08-12T03:22:14.008Z,68.60
2017-08-12T03:24:40.335Z,70.30
2017-08-12T03:27:06.704Z,69.60
2017-08-12T03:29:33.048Z,67.70
2017-08-12T03:31:59.377Z,68.70
2017-08-12T03:34:25.761Z,68.70
2017-08-12T03:36:52.084Z,68.70
2017-08-12T03:39:19.489Z,67.90
2017-08-12T03:41:45.849Z,67.80
2017-08-12T03:44:12.415Z,68.30
2017-08-12T03:46:39.347Z,66.40
2017-08-12T03:49:05.693Z,66.70
2017-08-12T03:51:32.029Z,66.40
2017-08-12T03:53:59.320Z,66.50
2017-08-12T03:56:25.680Z,66.30
2017-08-12T03:58:52.017Z,65.00
2017-08-12T04:01:18.365Z,65.20
2017-08-12T04:03:45.445Z,66.80
2017-08-12T04:06:11.811Z,66.80
2017-08-12T04:08:38.152Z,66.30
2017-08-12T04:11:04.476Z,67.00
2017-08-12T04:13:30.829Z,67.50
2017-08-12T04:15:57.132Z,67.60
2017-08-12T04:18:23.462Z,68.60
2017-08-12T04:20:49.802Z,68.60
2017-08-12T04:23:16.336Z,67.80
2017-08-12T04:25:42.891Z,68.70
2017-08-12T04:28:09.225Z,66.70
2017-08-12T04:30:35.761Z,66.40
2017-08-12T04:33:02.305Z,66.20
2017-08-12T04:35:28.835Z,66.70
2017-08-12T04:37:55.400Z,65.90
2017-08-12T04:40:21.936Z,66.30
2017-08-12T04:42:49.210Z,67.30
2017-08-12T04:45:15.819Z,67.30
2017-08-12T04:47:43.035Z,67.10
2017-08-12T04:50:09.434Z,67.10
2017-08-12T04:52:36.175Z,66.10
2017-08-12T04:55:02.509Z,65.30
2017-08-12T04:57:28.864Z,65.90
2017-08-12T04:59:55.236Z,65.90
2017-08-12T05:02:21.562Z,66.00
2017-08-12T05:04:47.880Z,66.30
2017-08-12T05:07:14.196Z,66.70
2017-08-12T05:09:40.536Z,66.40
2017-08-12T05:12:06.898Z,65.60
2017-08-12T05:14:33.207Z,65.60
2017-08-12T05:16:59.765Z,65.90
2017-08-12T05:19:26.326Z,66.20
2017-08-12T05:21:52.832Z,65.40
2017-08-12T05:24:19.396Z,65.90
2017-08-12T05:26:45.848Z,66.20
2017-08-12T05:29:12.404Z,66.00
2017-08-12T05:31:38.943Z,65.50
2017-08-12T05:34:05.511Z,65.10
2017-08-12T05:36:32.056Z,65.70
2017-08-12T05:38:59.306Z,66.60
2017-08-12T05:41:25.826Z,66.60
2017-08-12T05:43:52.167Z,66.80
2017-08-12T05:46:18.710Z,66.60
2017-08-12T05:48:45.249Z,67.30
2017-08-12T05:51:11.816Z,67.90
2017-08-12T05:53:38.862Z,67.40
2017-08-12T05:56:05.403Z,67.40
2017-08-12T05:58:31.947Z,67.40
2017-08-12T06:00:58.509Z,66.60
2017-08-12T06:03:25.072Z,66.60
2017-08-12T06:05:51.604Z,66.60
2017-08-12T06:08:18.953Z,67.00
2017-08-12T06:10:47.412Z,66.90
2017-08-12T06:13:14.021Z,67.70
2017-08-12T06:15:40.584Z,67.60
2017-08-12T06:18:07.892Z,68.60
2017-08-12T06:20:34.502Z,68.60
2017-08-12T06:23:01.118Z,68.50
2017-08-12T06:25:27.662Z,68.70
2017-08-12T06:27:54.321Z,68.30
2017-08-12T06:30:20.872Z,67.70
2017-08-12T06:32:48.228Z,68.00
2017-08-12T06:35:15.533Z,69.40
2017-08-12T06:37:41.884Z,69.40
2017-08-12T06:40:08.226Z,68.90
2017-08-12T06:42:34.779Z,69.50
2017-08-12T06:45:01.453Z,69.10
2017-08-12T06:47:28.838Z,69.60
2017-08-12T06:49:55.183Z,69.60
2017-08-12T06:52:21.515Z,69.60
2017-08-12T06:54:48.072Z,69.80
2017-08-12T06:57:14.577Z,69.90
2017-08-12T06:59:41.862Z,70.20
2017-08-12T07:02:08.196Z,70.20
2017-08-12T07:04:34.623Z,68.80
2017-08-12T07:07:01.448Z,68.50
2017-08-12T07:09:27.779Z,68.90
2017-08-12T07:11:54.152Z,69.00
2017-08-12T07:14:20.904Z,70.00
2017-08-12T07:16:47.244Z,69.80
2017-08-12T07:19:13.592Z,69.40
2017-08-12T07:21:39.977Z,68.90
2017-08-12T07:24:06.341Z,69.20
2017-08-12T07:26:32.693Z,68.80
2017-08-12T07:28:59.019Z,68.70
2017-08-12T07:31:26.766Z,69.70
2017-08-12T07:33:53.145Z,70.20
2017-08-12T07:36:19.570Z,70.20
2017-08-12T07:38:46.111Z,69.90
2017-08-12T07:41:12.480Z,69.10
2017-08-12T07:43:38.838Z,69.30
2017-08-12T07:46:05.179Z,69.80
2017-08-12T07:48:31.497Z,70.50
2017-08-12T07:50:57.832Z,70.30
2017-08-12T07:53:24.166Z,71.10
2017-08-12T07:55:50.703Z,71.20
2017-08-12T07:58:17.253Z,71.30
2017-08-12T08:00:44.045Z,71.70
2017-08-12T08:03:10.702Z,72.50
2017-08-12T08:05:37.340Z,71.50
2017-08-12T08:08:03.964Z,71.10
2017-08-12T08:10:30.576Z,71.00
2017-08-12T08:12:57.900Z,70.30
2017-08-12T08:15:24.237Z,70.20
2017-08-12T08:17:51.022Z,69.90
2017-08-12T08:20:18.732Z,69.60
2017-08-12T08:22:45.100Z,70.00
2017-08-12T08:25:11.449Z,70.50
2017-08-12T08:27:37.994Z,71.20
2017-08-12T08:30:04.604Z,70.90
2017-08-12T08:32:31.238Z,71.30
2017-08-12T08:34:58.309Z,71.70
2017-08-12T08:37:24.731Z,71.80
2017-08-12T08:39:51.050Z,71.30
2017-08-12T08:42:17.409Z,71.80
2017-08-12T08:44:43.753Z,71.70
2017-08-12T08:47:10.097Z,71.60
2017-08-12T08:49:36.502Z,71.30
2017-08-12T08:52:03.079Z,71.00
2017-08-12T08:54:29.607Z,72.00
2017-08-12T08:56:56.128Z,70.70
2017-08-12T08:59:22.681Z,71.70
2017-08-12T09:01:49.263Z,71.80
2017-08-12T09:04:15.822Z,71.10
2017-08-12T09:06:42.388Z,70.90
2017-08-12T09:09:09.681Z,71.50
2017-08-12T09:11:37.052Z,70.70
2017-08-12T09:14:03.421Z,70.70
2017-08-12T09:16:29.845Z,70.30
2017-08-12T09:18:56.184Z,69.40
2017-08-12T09:21:22.528Z,70.70
2017-08-12T09:23:51.508Z,71.30
2017-08-12T09:26:17.854Z,70.20
2017-08-12T09:28:44.201Z,71.20
2017-08-12T09:31:12.751Z,71.20
2017-08-12T09:33:39.108Z,70.90
2017-08-12T09:36:05.458Z,70.30
2017-08-12T09:38:31.792Z,70.80
2017-08-12T09:40:58.146Z,71.60
2017-08-12T09:43:24.479Z,71.30
2017-08-12T09:45:50.841Z,71.00
2017-08-12T09:48:17.209Z,71.90
2017-08-12T09:50:43.656Z,71.50
2017-08-12T09:53:10.008Z,71.70
2017-08-12T09:55:36.338Z,70.40
2017-08-12T09:58:02.676Z,70.90
2017-08-12T10:00:29.001Z,69.80
2017-08-12T10:02:55.534Z,69.90
2017-08-12T10:05:22.119Z,69.70
2017-08-12T10:07:49.488Z,70.00
2017-08-12T10:10:16.401Z,70.00
2017-08-12T10:12:42.713Z,70.00
2017-08-12T10:15:09.782Z,70.70
2017-08-12T10:17:36.121Z,70.00
2017-08-12T10:20:02.509Z,68.70
2017-08-12T10:22:28.845Z,69.50
2017-08-12T10:24:55.172Z,69.50
2017-08-12T10:27:21.483Z,70.10
2017-08-12T10:29:47.803Z,68.40
2017-08-12T10:32:14.474Z,68.80
2017-08-12T10:34:41.001Z,68.60
2017-08-12T10:37:07.552Z,69.10
2017-08-12T10:39:34.148Z,69.10
2017-08-12T10:42:00.704Z,68.20
2017-08-12T10:44:27.284Z,68.60
2017-08-12T10:46:54.540Z,68.80
2017-08-12T10:49:21.109Z,68.70
2017-08-12T10:51:47.737Z,68.00
2017-08-12T10:54:15.264Z,68.00
2017-08-12T10:56:41.769Z,68.90
2017-08-12T10:59:08.112Z,69.10
2017-08-12T11:01:34.494Z,68.30
2017-08-12T11:04:01.615Z,68.30
2017-08-12T11:06:27.980Z,68.10
2017-08-12T11:08:57.785Z,69.60
2017-08-12T11:11:24.150Z,69.60
2017-08-12T11:13:50.505Z,70.40
2017-08-12T11:16:16.884Z,69.50
2017-08-12T11:18:43.225Z,69.70
2017-08-12T11:21:09.545Z,68.70
2017-08-12T11:23:35.886Z,68.10
2017-08-12T11:26:03.241Z,68.20
2017-08-12T11:28:29.598Z,69.40
2017-08-12T11:30:55.949Z,70.40
2017-08-12T11:33:23.041Z,68.90
2017-08-12T11:35:49.369Z,68.90
2017-08-12T11:38:15.697Z,68.80
2017-08-12T11:40:46.345Z,68.70
2017-08-12T11:43:12.700Z,68.10
2017-08-12T11:45:39.028Z,69.40
2017-08-12T11:48:05.350Z,69.30
2017-08-12T11:50:31.677Z,69.20
2017-08-12T11:52:58.022Z,67.30
2017-08-12T11:55:24.408Z,67.20
2017-08-12T11:57:50.716Z,67.50
2017-08-12T12:00:17.773Z,67.70
2017-08-12T12:02:44.845Z,66.90
2017-08-12T12:05:11.961Z,66.90
2017-08-12T12:07:39.282Z,66.80
2017-08-12T12:10:05.648Z,66.40
2017-08-12T12:12:32.685Z,67.40
2017-08-12T12:14:59.020Z,67.10
2017-08-12T12:17:25.340Z,67.60
2017-08-12T12:19:51.648Z,67.40
2017-08-12T12:22:17.945Z,67.30
2017-08-12T12:24:44.326Z,67.40
2017-08-12T12:27:10.636Z,67.40
2017-08-12T12:29:37.744Z,67.50
2017-08-12T12:32:04.080Z,67.50
2017-08-12T12:34:30.437Z,67.80
2017-08-12T12:36:56.773Z,67.40
2017-08-12T12:39:23.135Z,67.00
2017-08-12T12:41:49.456Z,67.50
2017-08-12T12:44:16.508Z,67.40
2017-08-12T12:46:42.840Z,67.40
2017-08-12T12:49:09.148Z,67.40
2017-08-12T12:51:35.489Z,67.60
2017-08-12T12:54:01.881Z,68.20
2017-08-12T12:56:28.214Z,68.80
2017-08-12T12:58:54.644Z,68.30
2017-08-12T13:01:21.128Z,68.20
2017-08-12T13:03:47.913Z,68.90
2017-08-12T13:06:14.243Z,68.80
2017-08-12T13:08:40.596Z,68.60
2017-08-12T13:11:07.688Z,67.70
2017-08-12T13:13:34.048Z,67.60
2017-08-12T13:16:00.447Z,67.70
2017-08-12T13:18:26.802Z,67.20
2017-08-12T13:20:53.144Z,67.90
2017-08-12T13:23:20.725Z,67.40
2017-08-12T13:25:47.294Z,67.10
2017-08-12T13:28:14.438Z,67.00
2017-08-12T13:30:45.976Z,66.90
2017-08-12T13:33:12.311Z,66.70
2017-08-12T13:35:38.644Z,67.50
2017-08-12T13:38:04.985Z,66.70
2017-08-12T13:40:31.292Z,65.80
2017-08-12T13:42:57.617Z,66.20
2017-08-12T13:45:28.968Z,66.00
2017-08-12T13:47:55.340Z,65.60
2017-08-12T13:50:21.669Z,65.40
2017-08-12T13:52:48.137Z,66.00
2017-08-12T13:55:14.496Z,66.30
2017-08-12T13:57:40.832Z,66.10
2017-08-12T14:00:11.219Z,66.20
2017-08-12T14:02:37.633Z,66.30
2017-08-12T14:05:03.972Z,66.60
2017-08-12T14:07:30.388Z,67.20
2017-08-12T14:09:57.476Z,66.30
2017-08-12T14:12:24.546Z,66.40
2017-08-12T14:14:54.073Z,66.40
2017-08-12T14:17:20.575Z,66.10
2017-08-12T14:19:46.942Z,66.20
2017-08-12T14:22:13.278Z,65.00
2017-08-12T14:24:39.639Z,64.90
2017-08-12T14:27:06.009Z,64.50
2017-08-12T14:29:32.364Z,64.70
2017-08-12T14:31:58.732Z,64.80
2017-08-12T14:34:25.717Z,63.80
2017-08-12T14:36:52.881Z,63.40
2017-08-12T14:39:19.386Z,63.20
2017-08-12T14:41:45.764Z,63.80
2017-08-12T14:44:12.101Z,63.30
2017-08-12T14:46:38.477Z,62.90
2017-08-12T14:49:05.016Z,63.60
2017-08-12T14:51:31.316Z,62.50
2017-08-12T14:53:57.645Z,62.40
2017-08-12T14:56:23.979Z,62.50
2017-08-12T14:58:50.319Z,62.30
2017-08-12T15:01:16.672Z,62.10
2017-08-12T15:03:43.023Z,63.30
2017-08-12T15:06:09.364Z,64.20
2017-08-12T15:08:35.667Z,64.80
2017-08-12T15:11:01.988Z,64.50
2017-08-12T15:13:28.338Z,64.30
2017-08-12T15:15:54.672Z,63.80
2017-08-12T15:18:21.221Z,64.10
2017-08-12T15:20:47.533Z,64.10
2017-08-12T15:23:13.864Z,65.40
2017-08-12T15:25:40.512Z,64.00
2017-08-12T15:28:06.864Z,63.50
2017-08-12T15:30:33.193Z,62.50
2017-08-12T15:33:00.261Z,62.60
2017-08-12T15:35:26.577Z,62.60
2017-08-12T15:37:52.916Z,62.60
2017-08-12T15:40:19.269Z,63.00
2017-08-12T15:42:45.628Z,62.70
2017-08-12T15:45:11.956Z,63.20
2017-08-12T15:47:38.284Z,62.50
2017-08-12T15:50:04.655Z,61.40
2017-08-12T15:52:31.095Z,61.80
2017-08-12T15:54:57.541Z,61.70
2017-08-12T15:57:23.913Z,61.70
2017-08-12T15:59:50.232Z,61.50
2017-08-12T16:02:16.553Z,61.60
2017-08-12T16:04:43.386Z,61.50
2017-08-12T16:07:09.836Z,62.00
2017-08-12T16:09:36.147Z,62.70
2017-08-12T16:12:03.204Z,62.10
2017-08-12T16:14:29.973Z,61.90
2017-08-12T16:16:56.297Z,61.80
2017-08-12T16:19:22.604Z,62.40
2017-08-12T16:21:49.654Z,60.80
2017-08-12T16:24:16.056Z,60.70
2017-08-12T16:26:42.356Z,62.60
2017-08-12T16:29:08.648Z,61.40
2017-08-12T16:31:35.774Z,61.60
2017-08-12T16:34:07.224Z,61.60
2017-08-12T16:36:33.532Z,61.20
2017-08-12T16:38:59.888Z,60.90
2017-08-12T16:41:26.960Z,62.10
2017-08-12T16:43:53.288Z,62.20
2017-08-12T16:46:19.576Z,62.00
2017-08-12T16:48:45.923Z,62.30
2017-08-12T16:51:12.253Z,61.80
2017-08-12T16:53:39.335Z,62.40
2017-08-12T16:56:05.705Z,62.40
2017-08-12T16:58:32.768Z,62.50
2017-08-12T17:00:59.833Z,62.40
2017-08-12T17:03:26.193Z,62.40
2017-08-12T17:05:54.257Z,62.30
2017-08-12T17:08:21.353Z,61.90
2017-08-12T17:10:47.797Z,61.70
2017-08-12T17:13:14.144Z,61.70
2017-08-12T17:15:40.501Z,62.20
2017-08-12T17:18:06.847Z,62.40
2017-08-12T17:20:33.272Z,62.40
2017-08-12T17:22:59.678Z,62.50
2017-08-12T17:25:26.040Z,62.40
2017-08-12T17:27:52.328Z,62.30
2017-08-12T17:30:18.669Z,62.20
2017-08-12T17:32:44.991Z,62.70
2017-08-12T17:35:12.589Z,62.30
2017-08-12T17:37:38.926Z,62.30
2017-08-12T17:40:05.236Z,62.30
2017-08-12T17:42:31.540Z,62.80
2017-08-12T17:44:57.869Z,62.70
2017-08-12T17:47:24.167Z,62.90
2017-08-12T17:49:50.520Z,62.80
2017-08-12T17:52:16.874Z,63.40
2017-08-12T17:54:43.192Z,63.00
2017-08-12T17:57:09.513Z,63.60
2017-08-12T17:59:35.989Z,63.90
2017-08-12T18:02:02.292Z,64.10
2017-08-12T18:04:28.609Z,63.50
2017-08-12T18:06:55.145Z,63.70
2017-08-12T18:09:21.645Z,63.60
2017-08-12T18:11:49.557Z,63.20
2017-08-12T18:14:18.792Z,63.00
2017-08-12T18:16:45.148Z,63.40
2017-08-12T18:19:11.456Z,63.80
2017-08-12T18:21:37.795Z,63.20
2017-08-12T18:24:04.147Z,63.50
2017-08-12T18:26:30.472Z,63.80
2017-08-12T18:28:56.811Z,63.60
2017-08-12T18:31:23.104Z,63.30
2017-08-12T18:33:49.425Z,63.70
2017-08-12T18:36:15.756Z,63.90
2017-08-12T18:38:42.069Z,64.30
2017-08-12T18:41:08.451Z,63.90
2017-08-12T18:43:34.749Z,63.70
2017-08-12T18:46:01.056Z,64.10
2017-08-12T18:48:28.140Z,63.70
2017-08-12T18:50:54.562Z,63.70
2017-08-12T18:53:21.673Z,64.00
2017-08-12T18:55:48.016Z,64.00
2017-08-12T18:58:14.328Z,64.00
2017-08-12T19:00:40.722Z,64.00
2017-08-12T19:03:07.844Z,64.20
2017-08-12T19:05:34.205Z,64.10
2017-08-12T19:08:00.542Z,63.90
2017-08-12T19:10:26.874Z,63.90
2017-08-12T19:12:53.164Z,64.50
2017-08-12T19:15:19.527Z,64.30
2017-08-12T19:17:45.854Z,64.00
2017-08-12T19:20:12.151Z,63.90
2017-08-12T19:22:42.784Z,63.60
2017-08-12T19:25:09.101Z,63.60
2017-08-12T19:27:35.408Z,63.70
2017-08-12T19:30:01.719Z,63.90
2017-08-12T19:32:28.818Z,63.40
2017-08-12T19:34:55.264Z,63.40
2017-08-12T19:37:21.828Z,63.50
2017-08-12T19:39:48.127Z,63.60
2017-08-12T19:42:14.581Z,64.10
2017-08-12T19:44:40.902Z,63.80
2017-08-12T19:47:07.232Z,63.80
2017-08-12T19:49:33.571Z,63.60
2017-08-12T19:52:00.086Z,63.80
2017-08-12T19:54:26.376Z,63.70
2017-08-12T19:56:52.704Z,63.30
2017-08-12T19:59:19.005Z,64.20
2017-08-12T20:01:45.325Z,64.40
2017-08-12T20:04:11.633Z,64.10
2017-08-12T20:06:38.863Z,64.20
2017-08-12T20:09:05.178Z,64.20
2017-08-12T20:11:31.496Z,64.30
2017-08-12T20:13:57.904Z,64.10
2017-08-12T20:16:24.232Z,64.10
2017-08-12T20:18:50.545Z,63.80
2017-08-12T20:21:16.857Z,63.70
2017-08-12T20:23:43.275Z,63.80
2017-08-12T20:26:09.588Z,63.70
2017-08-12T20:28:36.456Z,63.60
2017-08-12T20:31:02.788Z,63.70
2017-08-12T20:33:29.836Z,63.60
2017-08-12T20:35:56.952Z,64.70
2017-08-12T20:38:24.311Z,64.10
2017-08-12T20:40:50.640Z,63.40
2017-08-12T20:43:16.953Z,64.00
2017-08-12T20:45:43.271Z,63.80
2017-08-12T20:48:09.577Z,63.90
2017-08-12T20:50:35.884Z,64.00
2017-08-12T20:53:02.237Z,64.30
2017-08-12T20:55:28.616Z,64.50
2017-08-12T20:57:55.166Z,64.20
2017-08-12T21:00:21.504Z,64.30
2017-08-12T21:02:48.563Z,65.00
2017-08-12T21:05:14.878Z,64.90
2017-08-12T21:07:42.072Z,64.80
2017-08-12T21:10:08.445Z,64.70
2017-08-12T21:12:34.745Z,65.00
2017-08-12T21:15:01.086Z,65.00
2017-08-12T21:17:27.409Z,64.80
2017-08-12T21:19:53.715Z,65.00
2017-08-12T21:22:20.776Z,65.30
2017-08-12T21:24:47.105Z,65.30
2017-08-12T21:27:14.220Z,65.30
2017-08-12T21:29:40.562Z,65.20
2017-08-12T21:32:06.888Z,65.30
2017-08-12T21:34:33.205Z,65.30
2017-08-12T21:36:59.517Z,65.30
2017-08-12T21:39:25.831Z,65.40
2017-08-12T21:41:52.137Z,65.10
2017-08-12T21:44:18.503Z,65.60
2017-08-12T21:46:44.820Z,65.60
2017-08-12T21:49:11.156Z,65.80
2017-08-12T21:51:38.213Z,66.20
2017-08-12T21:54:04.523Z,66.10
2017-08-12T21:56:30.859Z,66.50
2017-08-12T21:58:57.228Z,66.00
2017-08-12T22:01:23.574Z,65.70
2017-08-12T22:03:49.889Z,66.00
2017-08-12T22:06:16.226Z,66.40
2017-08-12T22:08:42.557Z,66.30
2017-08-12T22:11:08.948Z,66.50
2017-08-12T22:13:35.282Z,66.80
2017-08-12T22:16:01.708Z,67.20
2017-08-12T22:18:28.029Z,67.20
2017-08-12T22:20:54.510Z,67.80
2017-08-12T22:23:20.873Z,67.70
2017-08-12T22:25:47.928Z,70.80
2017-08-12T22:28:15.454Z,70.90
2017-08-12T22:30:41.831Z,70.80
2017-08-12T22:33:08.142Z,70.40
2017-08-12T22:35:34.454Z,69.80
2017-08-12T22:38:00.826Z,69.80
2017-08-12T22:40:27.185Z,70.30
2017-08-12T22:42:53.503Z,69.80
2017-08-12T22:45:19.828Z,69.20
2017-08-12T22:47:46.222Z,68.70
2017-08-12T22:50:12.629Z,68.90
2017-08-12T22:52:38.957Z,68.50
2017-08-12T22:55:05.496Z,68.90
2017-08-12T22:57:31.844Z,68.50
2017-08-12T22:59:58.217Z,68.40
2017-08-12T23:02:24.576Z,69.60
2017-08-12T23:04:51.318Z,69.40
2017-08-12T23:07:17.671Z,70.10
2017-08-12T23:09:44.053Z,69.40
2017-08-12T23:12:11.157Z,70.40
2017-08-12T23:14:37.862Z,70.40
2017-08-12T23:17:04.231Z,70.30
2017-08-12T23:19:30.716Z,70.40
2017-08-12T23:21:57.101Z,70.50
2017-08-12T23:24:24.171Z,70.60
2017-08-12T23:26:50.585Z,70.30
2017-08-12T23:29:16.916Z,70.10
2017-08-12T23:31:43.256Z,70.10
2017-08-12T23:34:10.340Z,69.50
2017-08-12T23:36:36.721Z,69.40
2017-08-12T23:39:03.095Z,69.00
2017-08-12T23:41:29.437Z,69.10
2017-08-12T23:43:55.811Z,68.80
2017-08-12T23:46:22.996Z,68.90
2017-08-12T23:48:49.327Z,68.90
2017-08-12T23:51:15.703Z,68.70
2017-08-12T23:53:42.061Z,69.20
2017-08-12T23:56:08.400Z,68.90
2017-08-12T23:58:34.746Z,68.50
